Upstream stations:
Downstream station:
SHEF ID: CDNT2 Canadian Rv nr Canadian, TX
STATION TYPE:
Regulating: Stage = 8.00, Flow = 5231
PRECIP STAGE RIV-FLOW BAT-LOAD
in ft cfs volt
Ccp-Rev Ccp-Rev Ccp-Rev Ccp-Rev
(US/Central)
03/26 00:00 ---- 2.13 164 12.25
03/26 01:00 ---- 2.13 164 12.25
03/26 02:00 ---- 2.11 162 12.25
03/26 03:00 ---- 2.13 164 12.17
03/26 04:00 ---- 2.13 164 12.17
03/26 05:00 ---- 2.10 161 12.17
03/26 06:00 ---- 2.12 163 12.17
03/26 07:00 ---- 2.10 161 12.17
03/26 08:00 ---- 2.09 160 12.17
03/26 09:00 ---- 2.09 160 12.17
03/26 10:00 ---- 2.07 157 12.25
03/26 11:00 ---- 2.08 158 12.41
03/26 12:00 ---- 2.06 156 12.49
03/26 13:00 ---- 2.07 157 12.49
03/26 14:00 ---- 2.06 156 12.49
03/26 15:00 ---- 2.08 158 12.65
03/26 16:00 ---- 2.08 158 12.65
03/26 17:00 ---- 2.07 157 12.57
03/26 18:00 ---- 2.05 155 12.49
03/26 19:00 ---- 2.06 156 12.41
03/26 20:00 ---- 2.03 153 12.41
03/26 21:00 ---- 2.06 156 12.41
03/26 22:00 ---- 2.06 156 12.41
03/26 23:00 ---- ---- ---- ----